sensor_id;sensor_type;location;lat;lon;timestamp;P1;durP1;ratioP1;P2;durP2;ratioP2
34982;SDS011;21187;50.976;13.720;2023-07-13T00:01:41;4.63;;;1.30;;
34982;SDS011;21187;50.976;13.720;2023-07-13T00:06:45;3.53;;;1.40;;
34982;SDS011;21187;50.976;13.720;2023-07-13T00:11:50;4.35;;;1.30;;
34982;SDS011;21187;50.976;13.720;2023-07-13T00:16:53;1.80;;;1.30;;
34982;SDS011;21187;50.976;13.720;2023-07-13T00:21:56;1.80;;;1.10;;
34982;SDS011;21187;50.976;13.720;2023-07-13T00:26:58;1.95;;;1.48;;
34982;SDS011;21187;50.976;13.720;2023-07-13T00:31:59;2.63;;;1.60;;
34982;SDS011;21187;50.976;13.720;2023-07-13T00:37:01;4.90;;;1.23;;
34982;SDS011;21187;50.976;13.720;2023-07-13T00:42:04;2.38;;;1.52;;
34982;SDS011;21187;50.976;13.720;2023-07-13T00:47:06;4.40;;;1.73;;
34982;SDS011;21187;50.976;13.720;2023-07-13T00:52:08;3.75;;;1.83;;
34982;SDS011;21187;50.976;13.720;2023-07-13T00:57:12;5.55;;;2.10;;
34982;SDS011;21187;50.976;13.720;2023-07-13T01:02:17;9.82;;;2.13;;
34982;SDS011;21187;50.976;13.720;2023-07-13T01:07:21;8.00;;;2.05;;
34982;SDS011;21187;50.976;13.720;2023-07-13T01:12:24;4.88;;;1.85;;
34982;SDS011;21187;50.976;13.720;2023-07-13T01:17:28;3.92;;;1.70;;
34982;SDS011;21187;50.976;13.720;2023-07-13T01:22:30;6.57;;;2.05;;
34982;SDS011;21187;50.976;13.720;2023-07-13T01:27:33;3.83;;;1.92;;
34982;SDS011;21187;50.976;13.720;2023-07-13T01:32:36;2.83;;;1.60;;
34982;SDS011;21187;50.976;13.720;2023-07-13T01:37:38;3.83;;;1.80;;
34982;SDS011;21187;50.976;13.720;2023-07-13T01:42:42;5.57;;;2.42;;
34982;SDS011;21187;50.976;13.720;2023-07-13T01:47:44;9.80;;;1.75;;
34982;SDS011;21187;50.976;13.720;2023-07-13T01:52:46;8.93;;;2.38;;
34982;SDS011;21187;50.976;13.720;2023-07-13T01:57:48;7.93;;;2.08;;
34982;SDS011;21187;50.976;13.720;2023-07-13T02:02:51;3.13;;;1.73;;
34982;SDS011;21187;50.976;13.720;2023-07-13T02:07:53;6.30;;;1.88;;
34982;SDS011;21187;50.976;13.720;2023-07-13T02:12:55;7.50;;;1.83;;
34982;SDS011;21187;50.976;13.720;2023-07-13T02:17:57;2.67;;;1.60;;
34982;SDS011;21187;50.976;13.720;2023-07-13T02:23:00;2.72;;;1.73;;
34982;SDS011;21187;50.976;13.720;2023-07-13T02:28:02;3.03;;;1.80;;
34982;SDS011;21187;50.976;13.720;2023-07-13T02:33:05;3.40;;;1.52;;
34982;SDS011;21187;50.976;13.720;2023-07-13T02:38:07;5.18;;;1.80;;
34982;SDS011;21187;50.976;13.720;2023-07-13T02:43:10;6.38;;;1.80;;
34982;SDS011;21187;50.976;13.720;2023-07-13T02:48:13;5.97;;;2.47;;
34982;SDS011;21187;50.976;13.720;2023-07-13T02:53:15;7.05;;;2.35;;
34982;SDS011;21187;50.976;13.720;2023-07-13T02:58:17;9.35;;;2.42;;
34982;SDS011;21187;50.976;13.720;2023-07-13T03:03:20;5.93;;;2.60;;
34982;SDS011;21187;50.976;13.720;2023-07-13T03:08:22;7.22;;;2.45;;
34982;SDS011;21187;50.976;13.720;2023-07-13T03:13:27;4.50;;;2.40;;
34982;SDS011;21187;50.976;13.720;2023-07-13T03:18:29;8.23;;;2.35;;
34982;SDS011;21187;50.976;13.720;2023-07-13T03:23:35;12.57;;;2.22;;
34982;SDS011;21187;50.976;13.720;2023-07-13T03:28:38;4.80;;;2.42;;
34982;SDS011;21187;50.976;13.720;2023-07-13T03:33:42;9.10;;;2.40;;
34982;SDS011;21187;50.976;13.720;2023-07-13T03:38:46;7.38;;;2.17;;
34982;SDS011;21187;50.976;13.720;2023-07-13T03:43:51;4.25;;;2.30;;
34982;SDS011;21187;50.976;13.720;2023-07-13T03:48:57;4.50;;;2.58;;
34982;SDS011;21187;50.976;13.720;2023-07-13T03:53:59;7.00;;;2.47;;
34982;SDS011;21187;50.976;13.720;2023-07-13T03:59:02;5.97;;;2.88;;
34982;SDS011;21187;50.976;13.720;2023-07-13T04:04:04;5.07;;;3.03;;
34982;SDS011;21187;50.976;13.720;2023-07-13T04:09:06;6.03;;;2.47;;
34982;SDS011;21187;50.976;13.720;2023-07-13T04:14:08;6.75;;;2.40;;
34982;SDS011;21187;50.976;13.720;2023-07-13T04:19:10;4.10;;;3.00;;
34982;SDS011;21187;50.976;13.720;2023-07-13T04:24:12;5.90;;;2.88;;
34982;SDS011;21187;50.976;13.720;2023-07-13T04:29:14;4.40;;;2.70;;
34982;SDS011;21187;50.976;13.720;2023-07-13T04:34:16;4.15;;;2.78;;
34982;SDS011;21187;50.976;13.720;2023-07-13T04:39:18;4.97;;;3.03;;
34982;SDS011;21187;50.976;13.720;2023-07-13T04:44:20;3.38;;;2.28;;
34982;SDS011;21187;50.976;13.720;2023-07-13T04:49:22;4.65;;;2.70;;
34982;SDS011;21187;50.976;13.720;2023-07-13T04:54:24;6.18;;;2.58;;
34982;SDS011;21187;50.976;13.720;2023-07-13T04:59:26;5.95;;;2.75;;
34982;SDS011;21187;50.976;13.720;2023-07-13T05:04:28;8.98;;;3.03;;
34982;SDS011;21187;50.976;13.720;2023-07-13T05:09:30;3.70;;;2.47;;
34982;SDS011;21187;50.976;13.720;2023-07-13T05:14:32;7.90;;;3.15;;
34982;SDS011;21187;50.976;13.720;2023-07-13T05:19:34;5.22;;;2.38;;
34982;SDS011;21187;50.976;13.720;2023-07-13T05:24:36;4.78;;;2.28;;
34982;SDS011;21187;50.976;13.720;2023-07-13T05:29:38;8.02;;;2.35;;
34982;SDS011;21187;50.976;13.720;2023-07-13T05:34:39;5.57;;;2.20;;
34982;SDS011;21187;50.976;13.720;2023-07-13T05:39:41;5.47;;;2.45;;
34982;SDS011;21187;50.976;13.720;2023-07-13T05:44:43;3.63;;;1.95;;
34982;SDS011;21187;50.976;13.720;2023-07-13T05:49:45;3.53;;;2.00;;
34982;SDS011;21187;50.976;13.720;2023-07-13T05:54:47;5.65;;;2.42;;
34982;SDS011;21187;50.976;13.720;2023-07-13T05:59:49;3.75;;;1.90;;
34982;SDS011;21187;50.976;13.720;2023-07-13T06:04:51;8.25;;;2.40;;
34982;SDS011;21187;50.976;13.720;2023-07-13T06:09:53;5.30;;;1.88;;
34982;SDS011;21187;50.976;13.720;2023-07-13T06:14:55;8.98;;;2.15;;
34982;SDS011;21187;50.976;13.720;2023-07-13T06:19:57;2.50;;;1.90;;
34982;SDS011;21187;50.976;13.720;2023-07-13T06:24:59;2.35;;;1.73;;
34982;SDS011;21187;50.976;13.720;2023-07-13T06:30:01;4.00;;;1.98;;
34982;SDS011;21187;50.976;13.720;2023-07-13T06:35:03;3.55;;;1.48;;
34982;SDS011;21187;50.976;13.720;2023-07-13T06:40:05;4.22;;;2.00;;
34982;SDS011;21187;50.976;13.720;2023-07-13T06:45:08;2.78;;;1.67;;
34982;SDS011;21187;50.976;13.720;2023-07-13T06:50:10;5.20;;;1.83;;
34982;SDS011;21187;50.976;13.720;2023-07-13T06:55:12;2.30;;;1.80;;
34982;SDS011;21187;50.976;13.720;2023-07-13T07:00:14;3.80;;;1.65;;
34982;SDS011;21187;50.976;13.720;2023-07-13T07:05:16;3.92;;;1.88;;
34982;SDS011;21187;50.976;13.720;2023-07-13T07:10:19;5.53;;;2.03;;
34982;SDS011;21187;50.976;13.720;2023-07-13T07:15:22;6.07;;;1.90;;
34982;SDS011;21187;50.976;13.720;2023-07-13T07:20:24;3.13;;;1.60;;
34982;SDS011;21187;50.976;13.720;2023-07-13T07:25:26;2.05;;;1.70;;
34982;SDS011;21187;50.976;13.720;2023-07-13T07:30:28;5.75;;;1.75;;
34982;SDS011;21187;50.976;13.720;2023-07-13T07:35:32;8.38;;;1.70;;
34982;SDS011;21187;50.976;13.720;2023-07-13T07:40:42;2.40;;;1.53;;
34982;SDS011;21187;50.976;13.720;2023-07-13T07:45:48;8.40;;;1.60;;
34982;SDS011;21187;50.976;13.720;2023-07-13T07:50:50;6.72;;;1.58;;
34982;SDS011;21187;50.976;13.720;2023-07-13T07:55:52;3.67;;;1.38;;
34982;SDS011;21187;50.976;13.720;2023-07-13T08:01:03;3.90;;;1.13;;
34982;SDS011;21187;50.976;13.720;2023-07-13T08:06:09;4.32;;;1.25;;
34982;SDS011;21187;50.976;13.720;2023-07-13T08:11:14;3.50;;;1.27;;
34982;SDS011;21187;50.976;13.720;2023-07-13T08:16:19;5.30;;;1.33;;
34982;SDS011;21187;50.976;13.720;2023-07-13T08:21:21;2.20;;;1.10;;
34982;SDS011;21187;50.976;13.720;2023-07-13T08:26:23;2.60;;;0.90;;
34982;SDS011;21187;50.976;13.720;2023-07-13T08:31:25;8.35;;;1.42;;
34982;SDS011;21187;50.976;13.720;2023-07-13T08:36:28;5.80;;;1.17;;
34982;SDS011;21187;50.976;13.720;2023-07-13T08:41:30;6.38;;;1.30;;
34982;SDS011;21187;50.976;13.720;2023-07-13T08:46:36;5.50;;;1.40;;
34982;SDS011;21187;50.976;13.720;2023-07-13T08:51:43;4.80;;;1.20;;
34982;SDS011;21187;50.976;13.720;2023-07-13T08:56:46;4.22;;;1.10;;
34982;SDS011;21187;50.976;13.720;2023-07-13T09:18:27;4.15;;;1.42;;
34982;SDS011;21187;50.976;13.720;2023-07-13T09:23:42;2.33;;;1.03;;
34982;SDS011;21187;50.976;13.720;2023-07-13T09:28:46;7.00;;;1.27;;
34982;SDS011;21187;50.976;13.720;2023-07-13T09:33:51;3.38;;;1.35;;
34982;SDS011;21187;50.976;13.720;2023-07-13T09:39:09;3.80;;;1.00;;
34982;SDS011;21187;50.976;13.720;2023-07-13T09:44:15;5.78;;;1.40;;
34982;SDS011;21187;50.976;13.720;2023-07-13T09:49:22;4.18;;;1.20;;
34982;SDS011;21187;50.976;13.720;2023-07-13T09:54:28;3.25;;;1.38;;
34982;SDS011;21187;50.976;13.720;2023-07-13T09:59:34;4.50;;;1.23;;
34982;SDS011;21187;50.976;13.720;2023-07-13T10:04:40;6.00;;;1.10;;
34982;SDS011;21187;50.976;13.720;2023-07-13T10:09:42;2.33;;;1.23;;
34982;SDS011;21187;50.976;13.720;2023-07-13T10:14:44;4.53;;;1.65;;
34982;SDS011;21187;50.976;13.720;2023-07-13T10:19:46;5.47;;;1.20;;
34982;SDS011;21187;50.976;13.720;2023-07-13T10:24:49;3.55;;;1.48;;
34982;SDS011;21187;50.976;13.720;2023-07-13T10:29:53;5.47;;;1.30;;
34982;SDS011;21187;50.976;13.720;2023-07-13T10:35:02;2.95;;;1.30;;
34982;SDS011;21187;50.976;13.720;2023-07-13T10:40:05;1.02;;;0.80;;
34982;SDS011;21187;50.976;13.720;2023-07-13T10:45:14;5.40;;;1.38;;
34982;SDS011;21187;50.976;13.720;2023-07-13T10:50:20;1.67;;;0.80;;
34982;SDS011;21187;50.976;13.720;2023-07-13T11:16:37;2.28;;;1.02;;
34982;SDS011;21187;50.976;13.720;2023-07-13T11:27:15;8.95;;;1.30;;
34982;SDS011;21187;50.976;13.720;2023-07-13T11:32:43;6.10;;;1.15;;
34982;SDS011;21187;50.976;13.720;2023-07-13T11:37:45;3.95;;;0.90;;
34982;SDS011;21187;50.976;13.720;2023-07-13T11:42:48;6.25;;;1.08;;
34982;SDS011;21187;50.976;13.720;2023-07-13T11:47:50;2.88;;;1.13;;
34982;SDS011;21187;50.976;13.720;2023-07-13T11:52:52;3.03;;;1.10;;
34982;SDS011;21187;50.976;13.720;2023-07-13T11:57:57;3.55;;;1.20;;
34982;SDS011;21187;50.976;13.720;2023-07-13T12:03:02;3.15;;;1.10;;
34982;SDS011;21187;50.976;13.720;2023-07-13T12:08:10;3.47;;;1.05;;
34982;SDS011;21187;50.976;13.720;2023-07-13T12:13:24;5.25;;;1.17;;
34982;SDS011;21187;50.976;13.720;2023-07-13T12:18:29;2.83;;;1.10;;
34982;SDS011;21187;50.976;13.720;2023-07-13T12:23:33;4.60;;;1.10;;
34982;SDS011;21187;50.976;13.720;2023-07-13T12:28:38;7.30;;;1.48;;
34982;SDS011;21187;50.976;13.720;2023-07-13T12:33:45;5.85;;;1.10;;
34982;SDS011;21187;50.976;13.720;2023-07-13T12:38:47;4.07;;;1.10;;
34982;SDS011;21187;50.976;13.720;2023-07-13T12:43:49;6.63;;;1.30;;
34982;SDS011;21187;50.976;13.720;2023-07-13T12:48:52;4.78;;;1.17;;
34982;SDS011;21187;50.976;13.720;2023-07-13T12:54:17;3.75;;;1.40;;
34982;SDS011;21187;50.976;13.720;2023-07-13T12:59:21;2.17;;;0.98;;
34982;SDS011;21187;50.976;13.720;2023-07-13T13:04:24;6.93;;;1.08;;
34982;SDS011;21187;50.976;13.720;2023-07-13T13:09:27;2.50;;;1.08;;
34982;SDS011;21187;50.976;13.720;2023-07-13T13:14:29;6.55;;;1.20;;
34982;SDS011;21187;50.976;13.720;2023-07-13T13:19:31;4.78;;;1.10;;
34982;SDS011;21187;50.976;13.720;2023-07-13T13:24:33;6.80;;;1.42;;
34982;SDS011;21187;50.976;13.720;2023-07-13T13:29:36;5.10;;;1.15;;
34982;SDS011;21187;50.976;13.720;2023-07-13T13:34:41;3.88;;;1.20;;
34982;SDS011;21187;50.976;13.720;2023-07-13T13:39:44;4.95;;;1.15;;
34982;SDS011;21187;50.976;13.720;2023-07-13T13:44:58;4.15;;;1.20;;
34982;SDS011;21187;50.976;13.720;2023-07-13T13:50:01;4.30;;;1.20;;
34982;SDS011;21187;50.976;13.720;2023-07-13T13:55:10;5.80;;;1.10;;
34982;SDS011;21187;50.976;13.720;2023-07-13T14:05:22;10.55;;;1.55;;
34982;SDS011;21187;50.976;13.720;2023-07-13T14:10:27;7.85;;;1.15;;
34982;SDS011;21187;50.976;13.720;2023-07-13T14:15:29;4.00;;;1.30;;
34982;SDS011;21187;50.976;13.720;2023-07-13T14:20:35;4.72;;;1.13;;
34982;SDS011;21187;50.976;13.720;2023-07-13T14:25:37;6.57;;;1.48;;
34982;SDS011;21187;50.976;13.720;2023-07-13T14:30:39;3.53;;;1.05;;
34982;SDS011;21187;50.976;13.720;2023-07-13T14:35:41;2.33;;;1.20;;
34982;SDS011;21187;50.976;13.720;2023-07-13T14:40:44;7.72;;;1.13;;
34982;SDS011;21187;50.976;13.720;2023-07-13T14:45:46;6.75;;;1.33;;
34982;SDS011;21187;50.976;13.720;2023-07-13T14:50:55;3.72;;;1.20;;
34982;SDS011;21187;50.976;13.720;2023-07-13T14:55:58;2.70;;;0.95;;
34982;SDS011;21187;50.976;13.720;2023-07-13T15:01:00;4.05;;;1.20;;
34982;SDS011;21187;50.976;13.720;2023-07-13T15:06:02;6.03;;;1.20;;
34982;SDS011;21187;50.976;13.720;2023-07-13T15:11:09;3.72;;;1.17;;
34982;SDS011;21187;50.976;13.720;2023-07-13T15:16:24;2.83;;;1.20;;
34982;SDS011;21187;50.976;13.720;2023-07-13T15:21:26;9.02;;;1.08;;
34982;SDS011;21187;50.976;13.720;2023-07-13T15:26:32;6.32;;;1.20;;
34982;SDS011;21187;50.976;13.720;2023-07-13T15:31:34;4.35;;;0.80;;
34982;SDS011;21187;50.976;13.720;2023-07-13T15:36:38;4.00;;;1.00;;
34982;SDS011;21187;50.976;13.720;2023-07-13T15:41:41;0.93;;;0.70;;
34982;SDS011;21187;50.976;13.720;2023-07-13T15:46:47;2.25;;;0.75;;
34982;SDS011;21187;50.976;13.720;2023-07-13T15:51:48;6.55;;;0.73;;
34982;SDS011;21187;50.976;13.720;2023-07-13T15:56:52;2.70;;;0.70;;
34982;SDS011;21187;50.976;13.720;2023-07-13T16:01:56;1.50;;;0.70;;
34982;SDS011;21187;50.976;13.720;2023-07-13T16:06:58;5.40;;;0.80;;
34982;SDS011;21187;50.976;13.720;2023-07-13T16:12:00;3.60;;;0.90;;
34982;SDS011;21187;50.976;13.720;2023-07-13T16:17:01;1.52;;;0.38;;
34982;SDS011;21187;50.976;13.720;2023-07-13T16:22:04;2.63;;;0.57;;
34982;SDS011;21187;50.976;13.720;2023-07-13T16:27:08;0.90;;;0.40;;
34982;SDS011;21187;50.976;13.720;2023-07-13T16:32:11;1.58;;;0.70;;
34982;SDS011;21187;50.976;13.720;2023-07-13T16:42:19;3.42;;;0.43;;
34982;SDS011;21187;50.976;13.720;2023-07-13T16:47:21;2.95;;;0.70;;
34982;SDS011;21187;50.976;13.720;2023-07-13T16:52:27;5.00;;;1.00;;
34982;SDS011;21187;50.976;13.720;2023-07-13T16:57:30;3.13;;;1.60;;
34982;SDS011;21187;50.976;13.720;2023-07-13T17:02:36;2.28;;;1.50;;
34982;SDS011;21187;50.976;13.720;2023-07-13T17:07:41;3.50;;;1.50;;
34982;SDS011;21187;50.976;13.720;2023-07-13T17:12:45;5.65;;;1.60;;
34982;SDS011;21187;50.976;13.720;2023-07-13T17:17:48;2.15;;;1.02;;
34982;SDS011;21187;50.976;13.720;2023-07-13T17:22:52;3.20;;;1.30;;
34982;SDS011;21187;50.976;13.720;2023-07-13T17:27:55;2.28;;;1.50;;
34982;SDS011;21187;50.976;13.720;2023-07-13T17:32:57;1.48;;;1.20;;
34982;SDS011;21187;50.976;13.720;2023-07-13T17:38:00;3.63;;;1.20;;
34982;SDS011;21187;50.976;13.720;2023-07-13T17:43:03;4.18;;;1.50;;
34982;SDS011;21187;50.976;13.720;2023-07-13T17:48:07;3.13;;;1.40;;
34982;SDS011;21187;50.976;13.720;2023-07-13T17:53:14;3.75;;;1.30;;
34982;SDS011;21187;50.976;13.720;2023-07-13T17:58:18;3.35;;;1.02;;
34982;SDS011;21187;50.976;13.720;2023-07-13T18:03:22;3.08;;;1.20;;
34982;SDS011;21187;50.976;13.720;2023-07-13T18:08:36;3.78;;;1.23;;
34982;SDS011;21187;50.976;13.720;2023-07-13T18:13:39;1.20;;;0.93;;
34982;SDS011;21187;50.976;13.720;2023-07-13T18:18:41;4.60;;;1.10;;
34982;SDS011;21187;50.976;13.720;2023-07-13T18:23:47;5.05;;;1.17;;
34982;SDS011;21187;50.976;13.720;2023-07-13T18:28:49;5.70;;;0.90;;
34982;SDS011;21187;50.976;13.720;2023-07-13T18:33:52;2.15;;;0.80;;
34982;SDS011;21187;50.976;13.720;2023-07-13T18:38:57;3.72;;;0.90;;
34982;SDS011;21187;50.976;13.720;2023-07-13T18:44:00;3.00;;;0.93;;
34982;SDS011;21187;50.976;13.720;2023-07-13T18:49:03;2.42;;;0.88;;
34982;SDS011;21187;50.976;13.720;2023-07-13T18:54:12;6.82;;;0.80;;
34982;SDS011;21187;50.976;13.720;2023-07-13T18:59:16;7.82;;;1.05;;
34982;SDS011;21187;50.976;13.720;2023-07-13T19:04:36;1.83;;;0.80;;
34982;SDS011;21187;50.976;13.720;2023-07-13T19:09:38;4.30;;;0.73;;
34982;SDS011;21187;50.976;13.720;2023-07-13T19:14:42;1.80;;;1.10;;
34982;SDS011;21187;50.976;13.720;2023-07-13T19:19:49;2.20;;;0.80;;
34982;SDS011;21187;50.976;13.720;2023-07-13T19:24:51;4.80;;;0.88;;
34982;SDS011;21187;50.976;13.720;2023-07-13T19:29:54;2.60;;;1.05;;
34982;SDS011;21187;50.976;13.720;2023-07-13T19:34:56;3.10;;;1.00;;
34982;SDS011;21187;50.976;13.720;2023-07-13T19:39:58;3.40;;;0.90;;
34982;SDS011;21187;50.976;13.720;2023-07-13T19:45:00;6.03;;;1.15;;
34982;SDS011;21187;50.976;13.720;2023-07-13T19:50:02;5.82;;;0.85;;
34982;SDS011;21187;50.976;13.720;2023-07-13T19:55:08;2.22;;;0.88;;
34982;SDS011;21187;50.976;13.720;2023-07-13T20:00:21;2.67;;;1.05;;
34982;SDS011;21187;50.976;13.720;2023-07-13T20:05:27;1.27;;;0.70;;
34982;SDS011;21187;50.976;13.720;2023-07-13T20:10:30;4.22;;;0.80;;
34982;SDS011;21187;50.976;13.720;2023-07-13T20:15:35;2.45;;;1.10;;
34982;SDS011;21187;50.976;13.720;2023-07-13T20:20:38;3.53;;;1.05;;
34982;SDS011;21187;50.976;13.720;2023-07-13T20:25:42;2.28;;;0.90;;
34982;SDS011;21187;50.976;13.720;2023-07-13T20:30:45;3.95;;;0.77;;
34982;SDS011;21187;50.976;13.720;2023-07-13T20:35:49;1.65;;;0.88;;
34982;SDS011;21187;50.976;13.720;2023-07-13T20:40:51;2.38;;;0.88;;
34982;SDS011;21187;50.976;13.720;2023-07-13T20:45:58;5.18;;;1.10;;
34982;SDS011;21187;50.976;13.720;2023-07-13T20:51:01;3.30;;;0.90;;
34982;SDS011;21187;50.976;13.720;2023-07-13T20:56:08;2.17;;;0.98;;
34982;SDS011;21187;50.976;13.720;2023-07-13T21:01:17;2.97;;;1.00;;
34982;SDS011;21187;50.976;13.720;2023-07-13T21:06:34;5.95;;;0.98;;
34982;SDS011;21187;50.976;13.720;2023-07-13T21:11:37;8.52;;;0.88;;
34982;SDS011;21187;50.976;13.720;2023-07-13T21:16:41;3.40;;;0.93;;
34982;SDS011;21187;50.976;13.720;2023-07-13T21:21:43;2.15;;;0.88;;
34982;SDS011;21187;50.976;13.720;2023-07-13T21:26:45;2.70;;;1.33;;
34982;SDS011;21187;50.976;13.720;2023-07-13T21:31:46;3.72;;;0.85;;
34982;SDS011;21187;50.976;13.720;2023-07-13T21:36:48;1.23;;;0.80;;
34982;SDS011;21187;50.976;13.720;2023-07-13T21:41:52;9.23;;;3.40;;
34982;SDS011;21187;50.976;13.720;2023-07-13T21:46:54;6.47;;;1.80;;
34982;SDS011;21187;50.976;13.720;2023-07-13T21:51:57;2.40;;;1.02;;
34982;SDS011;21187;50.976;13.720;2023-07-13T21:56:59;5.32;;;1.60;;
34982;SDS011;21187;50.976;13.720;2023-07-13T22:02:01;3.92;;;1.77;;
34982;SDS011;21187;50.976;13.720;2023-07-13T22:07:03;7.45;;;2.17;;
34982;SDS011;21187;50.976;13.720;2023-07-13T22:12:07;3.92;;;1.65;;
34982;SDS011;21187;50.976;13.720;2023-07-13T22:17:10;9.32;;;2.13;;
34982;SDS011;21187;50.976;13.720;2023-07-13T22:22:13;5.40;;;1.58;;
34982;SDS011;21187;50.976;13.720;2023-07-13T22:27:15;8.32;;;1.35;;
34982;SDS011;21187;50.976;13.720;2023-07-13T22:32:19;4.47;;;1.30;;
34982;SDS011;21187;50.976;13.720;2023-07-13T22:37:21;4.80;;;1.40;;
34982;SDS011;21187;50.976;13.720;2023-07-13T22:42:23;3.75;;;1.23;;
34982;SDS011;21187;50.976;13.720;2023-07-13T22:47:25;4.22;;;1.38;;
34982;SDS011;21187;50.976;13.720;2023-07-13T22:52:27;2.30;;;1.13;;
34982;SDS011;21187;50.976;13.720;2023-07-13T22:57:28;6.75;;;1.35;;
34982;SDS011;21187;50.976;13.720;2023-07-13T23:02:30;3.35;;;1.20;;
34982;SDS011;21187;50.976;13.720;2023-07-13T23:07:32;5.07;;;1.50;;
34982;SDS011;21187;50.976;13.720;2023-07-13T23:12:35;5.75;;;1.40;;
34982;SDS011;21187;50.976;13.720;2023-07-13T23:17:38;4.93;;;1.35;;
34982;SDS011;21187;50.976;13.720;2023-07-13T23:22:41;6.43;;;1.40;;
34982;SDS011;21187;50.976;13.720;2023-07-13T23:27:43;4.70;;;1.70;;
34982;SDS011;21187;50.976;13.720;2023-07-13T23:32:46;4.10;;;1.50;;
34982;SDS011;21187;50.976;13.720;2023-07-13T23:37:49;5.75;;;1.70;;
34982;SDS011;21187;50.976;13.720;2023-07-13T23:42:51;3.65;;;1.70;;
34982;SDS011;21187;50.976;13.720;2023-07-13T23:47:54;8.75;;;1.42;;
34982;SDS011;21187;50.976;13.720;2023-07-13T23:52:58;2.92;;;1.58;;
34982;SDS011;21187;50.976;13.720;2023-07-13T23:58:01;5.65;;;1.30;;
